sensor_id;sensor_type;location;lat;lon;timestamp;P1;durP1;ratioP1;P2;durP2;ratioP2
37049;SDS011;22958;51.232;6.826;2022-11-20T00:02:21;32.40;;;15.40;;
37049;SDS011;22958;51.232;6.826;2022-11-20T00:04:47;31.87;;;15.00;;
37049;SDS011;22958;51.232;6.826;2022-11-20T00:07:12;32.40;;;14.80;;
37049;SDS011;22958;51.232;6.826;2022-11-20T00:09:38;28.37;;;14.27;;
37049;SDS011;22958;51.232;6.826;2022-11-20T00:12:03;35.83;;;15.10;;
37049;SDS011;22958;51.232;6.826;2022-11-20T00:14:29;37.07;;;16.20;;
37049;SDS011;22958;51.232;6.826;2022-11-20T00:16:54;33.80;;;16.67;;
37049;SDS011;22958;51.232;6.826;2022-11-20T00:19:20;36.10;;;16.77;;
37049;SDS011;22958;51.232;6.826;2022-11-20T00:21:45;42.77;;;17.47;;
37049;SDS011;22958;51.232;6.826;2022-11-20T00:24:11;37.47;;;17.20;;
37049;SDS011;22958;51.232;6.826;2022-11-20T00:26:36;46.83;;;17.93;;
37049;SDS011;22958;51.232;6.826;2022-11-20T00:29:02;40.50;;;18.20;;
37049;SDS011;22958;51.232;6.826;2022-11-20T00:31:28;41.50;;;17.13;;
37049;SDS011;22958;51.232;6.826;2022-11-20T00:33:55;40.38;;;17.30;;
37049;SDS011;22958;51.232;6.826;2022-11-20T00:36:22;37.83;;;17.37;;
37049;SDS011;22958;51.232;6.826;2022-11-20T00:38:56;34.17;;;16.17;;
37049;SDS011;22958;51.232;6.826;2022-11-20T00:41:22;40.13;;;17.50;;
37049;SDS011;22958;51.232;6.826;2022-11-20T00:43:50;43.08;;;17.67;;
37049;SDS011;22958;51.232;6.826;2022-11-20T00:46:18;39.72;;;17.48;;
37049;SDS011;22958;51.232;6.826;2022-11-20T00:48:45;38.67;;;17.88;;
37049;SDS011;22958;51.232;6.826;2022-11-20T00:51:11;43.87;;;17.60;;
37049;SDS011;22958;51.232;6.826;2022-11-20T00:53:39;42.13;;;17.88;;
37049;SDS011;22958;51.232;6.826;2022-11-20T00:56:06;46.33;;;18.80;;
37049;SDS011;22958;51.232;6.826;2022-11-20T00:58:36;46.55;;;19.77;;
37049;SDS011;22958;51.232;6.826;2022-11-20T01:01:08;34.97;;;16.90;;
37049;SDS011;22958;51.232;6.826;2022-11-20T01:03:34;42.60;;;18.88;;
37049;SDS011;22958;51.232;6.826;2022-11-20T01:06:01;42.15;;;18.75;;
37049;SDS011;22958;51.232;6.826;2022-11-20T01:08:32;40.08;;;18.80;;
37049;SDS011;22958;51.232;6.826;2022-11-20T01:11:03;39.00;;;18.98;;
37049;SDS011;22958;51.232;6.826;2022-11-20T01:13:31;41.65;;;18.17;;
37049;SDS011;22958;51.232;6.826;2022-11-20T01:16:24;53.25;;;20.05;;
37049;SDS011;22958;51.232;6.826;2022-11-20T01:18:54;41.95;;;18.45;;
37049;SDS011;22958;51.232;6.826;2022-11-20T01:21:41;42.17;;;18.90;;
37049;SDS011;22958;51.232;6.826;2022-11-20T01:24:08;44.30;;;19.35;;
37049;SDS011;22958;51.232;6.826;2022-11-20T01:26:37;41.90;;;18.67;;
37049;SDS011;22958;51.232;6.826;2022-11-20T01:29:04;45.08;;;19.45;;
37049;SDS011;22958;51.232;6.826;2022-11-20T01:31:35;42.83;;;19.23;;
37049;SDS011;22958;51.232;6.826;2022-11-20T01:34:23;44.15;;;18.85;;
37049;SDS011;22958;51.232;6.826;2022-11-20T01:36:47;43.88;;;19.50;;
37049;SDS011;22958;51.232;6.826;2022-11-20T01:39:15;45.45;;;18.98;;
37049;SDS011;22958;51.232;6.826;2022-11-20T01:41:46;39.72;;;18.25;;
37049;SDS011;22958;51.232;6.826;2022-11-20T01:44:50;39.70;;;17.50;;
37049;SDS011;22958;51.232;6.826;2022-11-20T01:47:23;40.72;;;17.73;;
37049;SDS011;22958;51.232;6.826;2022-11-20T01:52:50;39.83;;;18.33;;
37049;SDS011;22958;51.232;6.826;2022-11-20T01:55:23;46.35;;;19.60;;
37049;SDS011;22958;51.232;6.826;2022-11-20T01:57:53;44.35;;;19.98;;
37049;SDS011;22958;51.232;6.826;2022-11-20T02:00:20;41.45;;;19.70;;
37049;SDS011;22958;51.232;6.826;2022-11-20T02:02:48;49.38;;;20.85;;
37049;SDS011;22958;51.232;6.826;2022-11-20T02:08:05;43.47;;;18.85;;
37049;SDS011;22958;51.232;6.826;2022-11-20T02:10:31;41.33;;;18.75;;
37049;SDS011;22958;51.232;6.826;2022-11-20T02:12:58;52.25;;;20.60;;
37049;SDS011;22958;51.232;6.826;2022-11-20T02:15:42;47.30;;;20.65;;
37049;SDS011;22958;51.232;6.826;2022-11-20T02:18:08;52.97;;;19.80;;
37049;SDS011;22958;51.232;6.826;2022-11-20T02:23:04;46.33;;;19.63;;
37049;SDS011;22958;51.232;6.826;2022-11-20T02:25:50;49.58;;;19.98;;
37049;SDS011;22958;51.232;6.826;2022-11-20T02:28:17;48.85;;;20.75;;
37049;SDS011;22958;51.232;6.826;2022-11-20T02:30:43;45.93;;;20.03;;
37049;SDS011;22958;51.232;6.826;2022-11-20T02:33:09;45.03;;;21.00;;
37049;SDS011;22958;51.232;6.826;2022-11-20T02:38:00;46.73;;;19.80;;
37049;SDS011;22958;51.232;6.826;2022-11-20T02:40:27;44.90;;;19.00;;
37049;SDS011;22958;51.232;6.826;2022-11-20T02:42:53;48.20;;;21.25;;
37049;SDS011;22958;51.232;6.826;2022-11-20T02:47:45;41.33;;;19.02;;
37049;SDS011;22958;51.232;6.826;2022-11-20T02:50:11;44.90;;;19.00;;
37049;SDS011;22958;51.232;6.826;2022-11-20T02:52:37;48.57;;;19.33;;
37049;SDS011;22958;51.232;6.826;2022-11-20T02:55:03;45.97;;;20.23;;
37049;SDS011;22958;51.232;6.826;2022-11-20T02:57:29;44.13;;;19.73;;
37049;SDS011;22958;51.232;6.826;2022-11-20T02:59:54;39.23;;;18.60;;
37049;SDS011;22958;51.232;6.826;2022-11-20T03:02:20;44.37;;;19.90;;
37049;SDS011;22958;51.232;6.826;2022-11-20T03:04:45;49.43;;;20.00;;
37049;SDS011;22958;51.232;6.826;2022-11-20T03:07:11;44.37;;;20.57;;
37049;SDS011;22958;51.232;6.826;2022-11-20T03:09:36;48.57;;;20.47;;
37049;SDS011;22958;51.232;6.826;2022-11-20T03:12:02;51.27;;;19.97;;
37049;SDS011;22958;51.232;6.826;2022-11-20T03:14:27;46.13;;;19.23;;
37049;SDS011;22958;51.232;6.826;2022-11-20T03:16:53;45.87;;;19.97;;
37049;SDS011;22958;51.232;6.826;2022-11-20T03:19:18;42.27;;;19.70;;
37049;SDS011;22958;51.232;6.826;2022-11-20T03:21:44;48.87;;;19.97;;
37049;SDS011;22958;51.232;6.826;2022-11-20T03:24:09;47.77;;;19.87;;
37049;SDS011;22958;51.232;6.826;2022-11-20T03:26:35;45.13;;;19.93;;
37049;SDS011;22958;51.232;6.826;2022-11-20T03:29:02;51.70;;;20.20;;
37049;SDS011;22958;51.232;6.826;2022-11-20T03:31:30;53.70;;;21.17;;
37049;SDS011;22958;51.232;6.826;2022-11-20T03:34:00;46.97;;;20.38;;
37049;SDS011;22958;51.232;6.826;2022-11-20T03:36:27;46.63;;;20.40;;
37049;SDS011;22958;51.232;6.826;2022-11-20T03:38:53;54.55;;;21.48;;
37049;SDS011;22958;51.232;6.826;2022-11-20T03:41:20;46.78;;;21.05;;
37049;SDS011;22958;51.232;6.826;2022-11-20T03:43:49;45.25;;;20.13;;
37049;SDS011;22958;51.232;6.826;2022-11-20T03:46:18;44.42;;;19.77;;
37049;SDS011;22958;51.232;6.826;2022-11-20T03:48:44;44.93;;;20.83;;
37049;SDS011;22958;51.232;6.826;2022-11-20T03:53:41;46.08;;;19.20;;
37049;SDS011;22958;51.232;6.826;2022-11-20T03:56:08;45.00;;;19.45;;
37049;SDS011;22958;51.232;6.826;2022-11-20T03:58:35;47.03;;;19.17;;
37049;SDS011;22958;51.232;6.826;2022-11-20T04:01:06;45.13;;;19.23;;
37049;SDS011;22958;51.232;6.826;2022-11-20T04:03:32;45.20;;;19.00;;
37049;SDS011;22958;51.232;6.826;2022-11-20T04:06:01;46.63;;;20.37;;
37049;SDS011;22958;51.232;6.826;2022-11-20T04:08:28;48.85;;;20.40;;
37049;SDS011;22958;51.232;6.826;2022-11-20T04:10:55;44.47;;;20.23;;
37049;SDS011;22958;51.232;6.826;2022-11-20T04:13:20;40.47;;;18.60;;
37049;SDS011;22958;51.232;6.826;2022-11-20T04:15:45;42.70;;;18.77;;
37049;SDS011;22958;51.232;6.826;2022-11-20T04:18:11;47.77;;;19.80;;
37049;SDS011;22958;51.232;6.826;2022-11-20T04:20:36;45.40;;;19.93;;
37049;SDS011;22958;51.232;6.826;2022-11-20T04:23:02;42.67;;;19.07;;
37049;SDS011;22958;51.232;6.826;2022-11-20T04:25:27;43.80;;;18.90;;
37049;SDS011;22958;51.232;6.826;2022-11-20T04:27:53;42.97;;;19.77;;
37049;SDS011;22958;51.232;6.826;2022-11-20T04:30:19;38.00;;;17.90;;
37049;SDS011;22958;51.232;6.826;2022-11-20T04:32:44;48.57;;;20.27;;
37049;SDS011;22958;51.232;6.826;2022-11-20T04:35:10;43.60;;;18.73;;
37049;SDS011;22958;51.232;6.826;2022-11-20T04:37:35;41.47;;;18.27;;
37049;SDS011;22958;51.232;6.826;2022-11-20T04:40:01;39.93;;;18.43;;
37049;SDS011;22958;51.232;6.826;2022-11-20T04:42:26;44.33;;;18.37;;
37049;SDS011;22958;51.232;6.826;2022-11-20T04:44:55;41.45;;;18.40;;
37049;SDS011;22958;51.232;6.826;2022-11-20T04:47:20;40.43;;;17.67;;
37049;SDS011;22958;51.232;6.826;2022-11-20T04:49:46;45.07;;;18.47;;
37049;SDS011;22958;51.232;6.826;2022-11-20T04:52:11;46.47;;;19.30;;
37049;SDS011;22958;51.232;6.826;2022-11-20T04:54:37;46.93;;;19.43;;
37049;SDS011;22958;51.232;6.826;2022-11-20T04:57:03;42.37;;;19.20;;
37049;SDS011;22958;51.232;6.826;2022-11-20T04:59:28;48.87;;;19.50;;
37049;SDS011;22958;51.232;6.826;2022-11-20T05:01:54;40.43;;;18.33;;
37049;SDS011;22958;51.232;6.826;2022-11-20T05:04:19;41.63;;;18.27;;
37049;SDS011;22958;51.232;6.826;2022-11-20T05:06:45;43.67;;;19.70;;
37049;SDS011;22958;51.232;6.826;2022-11-20T05:09:11;43.03;;;20.30;;
37049;SDS011;22958;51.232;6.826;2022-11-20T05:11:37;47.63;;;21.85;;
37049;SDS011;22958;51.232;6.826;2022-11-20T05:14:03;43.27;;;19.67;;
37049;SDS011;22958;51.232;6.826;2022-11-20T05:16:28;48.70;;;20.87;;
37049;SDS011;22958;51.232;6.826;2022-11-20T05:18:55;42.27;;;19.27;;
37049;SDS011;22958;51.232;6.826;2022-11-20T05:21:21;43.50;;;19.85;;
37049;SDS011;22958;51.232;6.826;2022-11-20T05:23:46;46.33;;;21.03;;
37049;SDS011;22958;51.232;6.826;2022-11-20T05:26:16;47.00;;;20.13;;
37049;SDS011;22958;51.232;6.826;2022-11-20T05:28:43;44.15;;;20.52;;
37049;SDS011;22958;51.232;6.826;2022-11-20T05:31:10;48.93;;;20.80;;
37049;SDS011;22958;51.232;6.826;2022-11-20T05:33:41;41.80;;;19.80;;
37049;SDS011;22958;51.232;6.826;2022-11-20T05:36:08;42.10;;;19.90;;
37049;SDS011;22958;51.232;6.826;2022-11-20T05:38:34;54.25;;;21.45;;
37049;SDS011;22958;51.232;6.826;2022-11-20T05:41:07;46.33;;;20.90;;
37049;SDS011;22958;51.232;6.826;2022-11-20T05:43:35;46.10;;;20.40;;
37049;SDS011;22958;51.232;6.826;2022-11-20T05:46:02;44.88;;;19.55;;
37049;SDS011;22958;51.232;6.826;2022-11-20T05:48:29;46.30;;;19.60;;
37049;SDS011;22958;51.232;6.826;2022-11-20T05:50:56;48.90;;;22.58;;
37049;SDS011;22958;51.232;6.826;2022-11-20T05:53:23;44.75;;;20.45;;
37049;SDS011;22958;51.232;6.826;2022-11-20T05:55:55;48.30;;;20.17;;
37049;SDS011;22958;51.232;6.826;2022-11-20T05:58:22;48.58;;;21.73;;
37049;SDS011;22958;51.232;6.826;2022-11-20T06:00:47;45.00;;;21.60;;
37049;SDS011;22958;51.232;6.826;2022-11-20T06:03:13;47.00;;;21.47;;
37049;SDS011;22958;51.232;6.826;2022-11-20T06:05:38;45.17;;;19.57;;
37049;SDS011;22958;51.232;6.826;2022-11-20T06:08:04;45.37;;;20.83;;
37049;SDS011;22958;51.232;6.826;2022-11-20T06:10:29;45.37;;;21.03;;
37049;SDS011;22958;51.232;6.826;2022-11-20T06:12:57;45.13;;;19.80;;
37049;SDS011;22958;51.232;6.826;2022-11-20T06:15:22;47.78;;;21.42;;
37049;SDS011;22958;51.232;6.826;2022-11-20T06:17:51;42.20;;;20.27;;
37049;SDS011;22958;51.232;6.826;2022-11-20T06:20:18;45.25;;;20.00;;
37049;SDS011;22958;51.232;6.826;2022-11-20T06:22:43;38.87;;;19.17;;
37049;SDS011;22958;51.232;6.826;2022-11-20T06:25:09;45.33;;;19.53;;
37049;SDS011;22958;51.232;6.826;2022-11-20T06:27:34;46.20;;;20.97;;
37049;SDS011;22958;51.232;6.826;2022-11-20T06:30:00;44.87;;;21.03;;
37049;SDS011;22958;51.232;6.826;2022-11-20T06:32:25;43.97;;;20.10;;
37049;SDS011;22958;51.232;6.826;2022-11-20T06:34:51;40.23;;;18.97;;
37049;SDS011;22958;51.232;6.826;2022-11-20T06:37:16;43.50;;;20.37;;
37049;SDS011;22958;51.232;6.826;2022-11-20T06:39:41;45.60;;;21.13;;
37049;SDS011;22958;51.232;6.826;2022-11-20T06:42:07;43.17;;;21.07;;
37049;SDS011;22958;51.232;6.826;2022-11-20T06:44:32;50.30;;;20.77;;
37049;SDS011;22958;51.232;6.826;2022-11-20T06:46:58;46.43;;;20.60;;
37049;SDS011;22958;51.232;6.826;2022-11-20T06:49:23;45.03;;;19.30;;
37049;SDS011;22958;51.232;6.826;2022-11-20T06:51:50;40.80;;;20.05;;
37049;SDS011;22958;51.232;6.826;2022-11-20T06:54:15;42.40;;;20.37;;
37049;SDS011;22958;51.232;6.826;2022-11-20T06:56:41;44.20;;;20.23;;
37049;SDS011;22958;51.232;6.826;2022-11-20T06:59:06;43.03;;;19.37;;
37049;SDS011;22958;51.232;6.826;2022-11-20T07:01:32;43.63;;;20.07;;
37049;SDS011;22958;51.232;6.826;2022-11-20T07:03:57;43.87;;;19.83;;
37049;SDS011;22958;51.232;6.826;2022-11-20T07:06:23;45.00;;;20.50;;
37049;SDS011;22958;51.232;6.826;2022-11-20T07:08:50;42.00;;;19.50;;
37049;SDS011;22958;51.232;6.826;2022-11-20T07:11:17;46.47;;;19.88;;
37049;SDS011;22958;51.232;6.826;2022-11-20T07:13:42;43.03;;;19.90;;
37049;SDS011;22958;51.232;6.826;2022-11-20T07:16:09;47.53;;;22.45;;
37049;SDS011;22958;51.232;6.826;2022-11-20T07:18:35;42.57;;;19.40;;
37049;SDS011;22958;51.232;6.826;2022-11-20T07:21:08;43.77;;;18.07;;
37049;SDS011;22958;51.232;6.826;2022-11-20T07:23:35;40.53;;;18.45;;
37049;SDS011;22958;51.232;6.826;2022-11-20T07:26:05;45.10;;;19.08;;
37049;SDS011;22958;51.232;6.826;2022-11-20T07:28:31;44.33;;;18.98;;
37049;SDS011;22958;51.232;6.826;2022-11-20T07:30:57;50.77;;;19.80;;
37049;SDS011;22958;51.232;6.826;2022-11-20T07:33:22;40.40;;;18.83;;
37049;SDS011;22958;51.232;6.826;2022-11-20T07:35:48;43.90;;;19.67;;
37049;SDS011;22958;51.232;6.826;2022-11-20T07:38:14;40.73;;;18.47;;
37049;SDS011;22958;51.232;6.826;2022-11-20T07:40:39;47.97;;;18.50;;
37049;SDS011;22958;51.232;6.826;2022-11-20T07:43:05;40.13;;;19.03;;
37049;SDS011;22958;51.232;6.826;2022-11-20T07:45:31;41.70;;;18.20;;
37049;SDS011;22958;51.232;6.826;2022-11-20T07:47:56;38.03;;;17.57;;
37049;SDS011;22958;51.232;6.826;2022-11-20T07:50:21;41.93;;;18.17;;
37049;SDS011;22958;51.232;6.826;2022-11-20T07:52:47;43.27;;;18.90;;
37049;SDS011;22958;51.232;6.826;2022-11-20T07:55:13;40.87;;;18.93;;
37049;SDS011;22958;51.232;6.826;2022-11-20T07:57:39;40.72;;;18.60;;
37049;SDS011;22958;51.232;6.826;2022-11-20T08:00:05;41.03;;;18.03;;
37049;SDS011;22958;51.232;6.826;2022-11-20T08:02:34;43.33;;;20.77;;
37049;SDS011;22958;51.232;6.826;2022-11-20T08:05:01;46.55;;;21.30;;
37049;SDS011;22958;51.232;6.826;2022-11-20T08:07:27;48.20;;;21.27;;
37049;SDS011;22958;51.232;6.826;2022-11-20T08:09:52;43.33;;;20.30;;
37049;SDS011;22958;51.232;6.826;2022-11-20T08:12:19;46.20;;;20.90;;
37049;SDS011;22958;51.232;6.826;2022-11-20T08:15:04;48.42;;;21.92;;
37049;SDS011;22958;51.232;6.826;2022-11-20T08:17:31;47.85;;;22.70;;
37049;SDS011;22958;51.232;6.826;2022-11-20T08:19:56;44.03;;;20.67;;
37049;SDS011;22958;51.232;6.826;2022-11-20T08:22:22;43.50;;;21.77;;
37049;SDS011;22958;51.232;6.826;2022-11-20T08:24:48;46.77;;;21.37;;
37049;SDS011;22958;51.232;6.826;2022-11-20T08:27:14;43.67;;;20.93;;
37049;SDS011;22958;51.232;6.826;2022-11-20T08:29:39;51.33;;;22.73;;
37049;SDS011;22958;51.232;6.826;2022-11-20T08:32:05;51.23;;;24.67;;
37049;SDS011;22958;51.232;6.826;2022-11-20T08:34:30;51.07;;;23.83;;
37049;SDS011;22958;51.232;6.826;2022-11-20T08:36:55;50.03;;;22.93;;
37049;SDS011;22958;51.232;6.826;2022-11-20T08:39:21;45.97;;;21.57;;
37049;SDS011;22958;51.232;6.826;2022-11-20T08:41:47;47.05;;;20.27;;
37049;SDS011;22958;51.232;6.826;2022-11-20T08:44:13;50.93;;;21.67;;
37049;SDS011;22958;51.232;6.826;2022-11-20T08:46:39;44.53;;;22.17;;
37049;SDS011;22958;51.232;6.826;2022-11-20T08:49:07;39.85;;;19.38;;
37049;SDS011;22958;51.232;6.826;2022-11-20T08:51:34;45.78;;;17.63;;
37049;SDS011;22958;51.232;6.826;2022-11-20T08:54:01;35.75;;;18.15;;
37049;SDS011;22958;51.232;6.826;2022-11-20T08:56:27;49.55;;;19.80;;
37049;SDS011;22958;51.232;6.826;2022-11-20T08:58:52;44.00;;;20.63;;
37049;SDS011;22958;51.232;6.826;2022-11-20T09:01:18;40.87;;;18.40;;
37049;SDS011;22958;51.232;6.826;2022-11-20T09:06:10;43.17;;;17.73;;
37049;SDS011;22958;51.232;6.826;2022-11-20T09:08:36;41.80;;;18.33;;
37049;SDS011;22958;51.232;6.826;2022-11-20T09:11:02;51.33;;;21.10;;
37049;SDS011;22958;51.232;6.826;2022-11-20T09:13:28;48.00;;;19.73;;
37049;SDS011;22958;51.232;6.826;2022-11-20T09:15:54;38.25;;;17.73;;
37049;SDS011;22958;51.232;6.826;2022-11-20T09:18:21;36.40;;;15.98;;
37049;SDS011;22958;51.232;6.826;2022-11-20T09:20:47;39.47;;;17.60;;
37049;SDS011;22958;51.232;6.826;2022-11-20T09:23:13;38.90;;;17.53;;
37049;SDS011;22958;51.232;6.826;2022-11-20T09:25:39;41.20;;;18.67;;
37049;SDS011;22958;51.232;6.826;2022-11-20T09:28:05;42.33;;;18.97;;
37049;SDS011;22958;51.232;6.826;2022-11-20T09:30:30;40.57;;;18.90;;
37049;SDS011;22958;51.232;6.826;2022-11-20T09:32:56;41.20;;;19.47;;
37049;SDS011;22958;51.232;6.826;2022-11-20T09:35:21;49.37;;;20.57;;
37049;SDS011;22958;51.232;6.826;2022-11-20T09:37:47;41.83;;;19.10;;
37049;SDS011;22958;51.232;6.826;2022-11-20T09:40:19;41.67;;;17.67;;
37049;SDS011;22958;51.232;6.826;2022-11-20T09:48:14;37.42;;;17.88;;
37049;SDS011;22958;51.232;6.826;2022-11-20T09:56:53;39.78;;;18.25;;
37049;SDS011;22958;51.232;6.826;2022-11-20T10:01:58;39.05;;;18.17;;
37049;SDS011;22958;51.232;6.826;2022-11-20T10:04:25;40.05;;;16.70;;
37049;SDS011;22958;51.232;6.826;2022-11-20T10:09:40;37.40;;;17.08;;
37049;SDS011;22958;51.232;6.826;2022-11-20T10:12:13;33.70;;;15.90;;
37049;SDS011;22958;51.232;6.826;2022-11-20T10:14:54;37.03;;;17.55;;
37049;SDS011;22958;51.232;6.826;2022-11-20T10:26:37;36.72;;;15.50;;
37049;SDS011;22958;51.232;6.826;2022-11-20T10:29:19;34.72;;;16.25;;
37049;SDS011;22958;51.232;6.826;2022-11-20T10:31:56;35.30;;;15.20;;
37049;SDS011;22958;51.232;6.826;2022-11-20T10:35:00;36.42;;;16.95;;
37049;SDS011;22958;51.232;6.826;2022-11-20T10:37:27;35.30;;;16.42;;
37049;SDS011;22958;51.232;6.826;2022-11-20T10:47:49;41.55;;;18.77;;
37049;SDS011;22958;51.232;6.826;2022-11-20T10:50:29;41.83;;;19.27;;
37049;SDS011;22958;51.232;6.826;2022-11-20T10:52:58;43.77;;;19.23;;
37049;SDS011;22958;51.232;6.826;2022-11-20T10:58:23;43.05;;;18.48;;
37049;SDS011;22958;51.232;6.826;2022-11-20T11:01:14;41.63;;;18.52;;
37049;SDS011;22958;51.232;6.826;2022-11-20T11:03:42;45.08;;;20.85;;
37049;SDS011;22958;51.232;6.826;2022-11-20T11:08:48;40.70;;;18.23;;
37049;SDS011;22958;51.232;6.826;2022-11-20T11:11:23;42.63;;;18.23;;
37049;SDS011;22958;51.232;6.826;2022-11-20T11:13:51;40.55;;;18.20;;
37049;SDS011;22958;51.232;6.826;2022-11-20T11:16:19;40.83;;;19.90;;
37049;SDS011;22958;51.232;6.826;2022-11-20T11:18:50;45.75;;;20.35;;
37049;SDS011;22958;51.232;6.826;2022-11-20T11:21:25;42.67;;;19.05;;
37049;SDS011;22958;51.232;6.826;2022-11-20T11:23:57;42.55;;;19.48;;
37049;SDS011;22958;51.232;6.826;2022-11-20T11:26:28;38.73;;;17.60;;
37049;SDS011;22958;51.232;6.826;2022-11-20T11:28:55;43.23;;;19.27;;
37049;SDS011;22958;51.232;6.826;2022-11-20T11:31:25;43.08;;;18.90;;
37049;SDS011;22958;51.232;6.826;2022-11-20T11:34:03;37.80;;;17.15;;
37049;SDS011;22958;51.232;6.826;2022-11-20T11:36:33;43.15;;;17.23;;
37049;SDS011;22958;51.232;6.826;2022-11-20T11:39:00;39.85;;;18.98;;
37049;SDS011;22958;51.232;6.826;2022-11-20T11:41:28;42.15;;;17.50;;
37049;SDS011;22958;51.232;6.826;2022-11-20T11:43:58;43.05;;;17.63;;
37049;SDS011;22958;51.232;6.826;2022-11-20T11:46:52;38.42;;;17.20;;
37049;SDS011;22958;51.232;6.826;2022-11-20T11:49:20;41.35;;;18.35;;
37049;SDS011;22958;51.232;6.826;2022-11-20T11:51:59;44.37;;;19.23;;
37049;SDS011;22958;51.232;6.826;2022-11-20T11:54:55;43.47;;;18.05;;
37049;SDS011;22958;51.232;6.826;2022-11-20T11:57:34;43.83;;;18.70;;
37049;SDS011;22958;51.232;6.826;2022-11-20T12:00:15;44.03;;;18.50;;
37049;SDS011;22958;51.232;6.826;2022-11-20T12:02:48;42.85;;;18.92;;
37049;SDS011;22958;51.232;6.826;2022-11-20T12:05:38;40.67;;;18.30;;
37049;SDS011;22958;51.232;6.826;2022-11-20T12:11:05;41.42;;;19.02;;
37049;SDS011;22958;51.232;6.826;2022-11-20T12:13:44;50.25;;;20.35;;
37049;SDS011;22958;51.232;6.826;2022-11-20T12:16:17;50.42;;;20.17;;
37049;SDS011;22958;51.232;6.826;2022-11-20T12:18:49;52.03;;;20.10;;
37049;SDS011;22958;51.232;6.826;2022-11-20T12:23:57;41.25;;;19.02;;
37049;SDS011;22958;51.232;6.826;2022-11-20T12:29:32;49.00;;;20.02;;
37049;SDS011;22958;51.232;6.826;2022-11-20T12:43:30;46.90;;;19.35;;
37049;SDS011;22958;51.232;6.826;2022-11-20T12:46:44;42.97;;;20.58;;
37049;SDS011;22958;51.232;6.826;2022-11-20T12:49:20;46.97;;;19.98;;
37049;SDS011;22958;51.232;6.826;2022-11-20T12:52:38;46.30;;;20.95;;
37049;SDS011;22958;51.232;6.826;2022-11-20T12:55:14;51.55;;;22.42;;
37049;SDS011;22958;51.232;6.826;2022-11-20T12:57:54;52.25;;;22.15;;
37049;SDS011;22958;51.232;6.826;2022-11-20T13:00:25;55.30;;;22.92;;
37049;SDS011;22958;51.232;6.826;2022-11-20T13:05:55;57.25;;;23.40;;
37049;SDS011;22958;51.232;6.826;2022-11-20T13:08:37;62.08;;;24.10;;
37049;SDS011;22958;51.232;6.826;2022-11-20T13:19:29;61.97;;;24.85;;
37049;SDS011;22958;51.232;6.826;2022-11-20T13:21:55;57.60;;;24.97;;
37049;SDS011;22958;51.232;6.826;2022-11-20T13:27:05;64.47;;;26.48;;
37049;SDS011;22958;51.232;6.826;2022-11-20T13:29:45;57.45;;;26.17;;
37049;SDS011;22958;51.232;6.826;2022-11-20T13:32:16;54.95;;;23.67;;
37049;SDS011;22958;51.232;6.826;2022-11-20T13:35:02;71.93;;;26.00;;
37049;SDS011;22958;51.232;6.826;2022-11-20T13:37:33;54.65;;;22.25;;
37049;SDS011;22958;51.232;6.826;2022-11-20T13:40:05;58.15;;;24.08;;
37049;SDS011;22958;51.232;6.826;2022-11-20T13:42:38;55.33;;;24.33;;
37049;SDS011;22958;51.232;6.826;2022-11-20T13:45:09;60.75;;;25.00;;
37049;SDS011;22958;51.232;6.826;2022-11-20T13:47:49;60.10;;;23.33;;
37049;SDS011;22958;51.232;6.826;2022-11-20T13:50:16;60.72;;;25.38;;
37049;SDS011;22958;51.232;6.826;2022-11-20T13:52:47;58.03;;;24.08;;
37049;SDS011;22958;51.232;6.826;2022-11-20T13:55:31;63.35;;;25.90;;
37049;SDS011;22958;51.232;6.826;2022-11-20T14:01:09;59.17;;;24.40;;
37049;SDS011;22958;51.232;6.826;2022-11-20T14:03:40;56.58;;;24.60;;
37049;SDS011;22958;51.232;6.826;2022-11-20T14:06:11;63.37;;;24.87;;
37049;SDS011;22958;51.232;6.826;2022-11-20T14:08:47;56.63;;;24.50;;
37049;SDS011;22958;51.232;6.826;2022-11-20T14:11:21;59.78;;;23.92;;
37049;SDS011;22958;51.232;6.826;2022-11-20T14:14:05;56.53;;;25.10;;
37049;SDS011;22958;51.232;6.826;2022-11-20T14:16:40;55.72;;;24.92;;
37049;SDS011;22958;51.232;6.826;2022-11-20T14:19:23;63.70;;;25.70;;
37049;SDS011;22958;51.232;6.826;2022-11-20T14:21:53;55.78;;;25.02;;
37049;SDS011;22958;51.232;6.826;2022-11-20T14:24:31;70.00;;;26.02;;
37049;SDS011;22958;51.232;6.826;2022-11-20T14:26:56;54.20;;;24.67;;
37049;SDS011;22958;51.232;6.826;2022-11-20T14:29:23;60.13;;;25.30;;
37049;SDS011;22958;51.232;6.826;2022-11-20T14:31:54;61.10;;;25.52;;
37049;SDS011;22958;51.232;6.826;2022-11-20T14:34:22;67.38;;;25.90;;
37049;SDS011;22958;51.232;6.826;2022-11-20T14:36:52;68.65;;;28.23;;
37049;SDS011;22958;51.232;6.826;2022-11-20T14:39:22;64.57;;;26.25;;
37049;SDS011;22958;51.232;6.826;2022-11-20T14:41:54;64.13;;;25.10;;
37049;SDS011;22958;51.232;6.826;2022-11-20T14:44:20;59.47;;;24.50;;
37049;SDS011;22958;51.232;6.826;2022-11-20T14:46:50;62.33;;;24.55;;
37049;SDS011;22958;51.232;6.826;2022-11-20T14:49:16;56.47;;;24.58;;
37049;SDS011;22958;51.232;6.826;2022-11-20T14:51:42;56.10;;;23.87;;
37049;SDS011;22958;51.232;6.826;2022-11-20T14:54:10;55.53;;;23.35;;
37049;SDS011;22958;51.232;6.826;2022-11-20T14:56:38;52.22;;;22.25;;
37049;SDS011;22958;51.232;6.826;2022-11-20T14:59:04;50.77;;;23.27;;
37049;SDS011;22958;51.232;6.826;2022-11-20T15:01:31;53.35;;;23.45;;
37049;SDS011;22958;51.232;6.826;2022-11-20T15:06:26;56.40;;;23.20;;
37049;SDS011;22958;51.232;6.826;2022-11-20T15:08:53;55.25;;;22.25;;
37049;SDS011;22958;51.232;6.826;2022-11-20T15:11:19;53.10;;;21.07;;
37049;SDS011;22958;51.232;6.826;2022-11-20T15:13:50;48.03;;;21.13;;
37049;SDS011;22958;51.232;6.826;2022-11-20T15:16:20;51.30;;;20.83;;
37049;SDS011;22958;51.232;6.826;2022-11-20T15:18:47;49.67;;;21.88;;
37049;SDS011;22958;51.232;6.826;2022-11-20T15:21:13;45.97;;;20.70;;
37049;SDS011;22958;51.232;6.826;2022-11-20T15:23:41;46.83;;;20.70;;
37049;SDS011;22958;51.232;6.826;2022-11-20T15:26:07;57.30;;;22.73;;
37049;SDS011;22958;51.232;6.826;2022-11-20T15:31:14;46.28;;;20.00;;
37049;SDS011;22958;51.232;6.826;2022-11-20T15:33:41;47.90;;;19.75;;
37049;SDS011;22958;51.232;6.826;2022-11-20T15:36:07;47.65;;;21.50;;
37049;SDS011;22958;51.232;6.826;2022-11-20T15:38:33;48.78;;;21.05;;
37049;SDS011;22958;51.232;6.826;2022-11-20T15:40:59;51.37;;;20.67;;
37049;SDS011;22958;51.232;6.826;2022-11-20T15:43:25;55.47;;;21.83;;
37049;SDS011;22958;51.232;6.826;2022-11-20T15:45:51;56.67;;;21.30;;
37049;SDS011;22958;51.232;6.826;2022-11-20T15:48:21;63.03;;;21.75;;
37049;SDS011;22958;51.232;6.826;2022-11-20T15:50:52;54.45;;;21.55;;
37049;SDS011;22958;51.232;6.826;2022-11-20T15:53:29;54.92;;;22.13;;
37049;SDS011;22958;51.232;6.826;2022-11-20T15:55:54;59.57;;;23.93;;
37049;SDS011;22958;51.232;6.826;2022-11-20T15:58:20;56.03;;;22.43;;
37049;SDS011;22958;51.232;6.826;2022-11-20T16:00:47;57.85;;;23.77;;
37049;SDS011;22958;51.232;6.826;2022-11-20T16:03:13;58.90;;;23.97;;
37049;SDS011;22958;51.232;6.826;2022-11-20T16:05:43;56.08;;;23.05;;
37049;SDS011;22958;51.232;6.826;2022-11-20T16:08:09;61.38;;;25.38;;
37049;SDS011;22958;51.232;6.826;2022-11-20T16:10:34;57.67;;;24.17;;
37049;SDS011;22958;51.232;6.826;2022-11-20T16:13:00;58.03;;;24.40;;